sensor_id;sensor_type;location;lat;lon;timestamp;P1;durP1;ratioP1;P2;durP2;ratioP2
20042;SDS011;10182;52.896;6.496;2023-08-06T00:01:37;16.43;;;14.77;;
20042;SDS011;10182;52.896;6.496;2023-08-06T00:06:39;15.43;;;13.97;;
20042;SDS011;10182;52.896;6.496;2023-08-06T00:11:42;16.60;;;14.90;;
20042;SDS011;10182;52.896;6.496;2023-08-06T00:16:46;16.90;;;15.00;;
20042;SDS011;10182;52.896;6.496;2023-08-06T00:21:48;17.97;;;14.43;;
20042;SDS011;10182;52.896;6.496;2023-08-06T00:26:51;16.57;;;13.80;;
20042;SDS011;10182;52.896;6.496;2023-08-06T00:31:53;16.60;;;15.03;;
20042;SDS011;10182;52.896;6.496;2023-08-06T00:36:54;15.33;;;13.83;;
20042;SDS011;10182;52.896;6.496;2023-08-06T00:41:57;16.47;;;14.57;;
20042;SDS011;10182;52.896;6.496;2023-08-06T00:46:59;17.10;;;14.47;;
20042;SDS011;10182;52.896;6.496;2023-08-06T00:52:01;15.93;;;13.83;;
20042;SDS011;10182;52.896;6.496;2023-08-06T00:57:06;13.80;;;12.40;;
20042;SDS011;10182;52.896;6.496;2023-08-06T01:02:09;16.63;;;15.03;;
20042;SDS011;10182;52.896;6.496;2023-08-06T01:07:16;15.40;;;13.63;;
20042;SDS011;10182;52.896;6.496;2023-08-06T01:12:34;14.50;;;13.03;;
20042;SDS011;10182;52.896;6.496;2023-08-06T01:17:42;17.47;;;13.33;;
20042;SDS011;10182;52.896;6.496;2023-08-06T01:22:47;15.43;;;13.20;;
20042;SDS011;10182;52.896;6.496;2023-08-06T01:27:49;13.73;;;12.33;;
20042;SDS011;10182;52.896;6.496;2023-08-06T01:32:53;14.03;;;12.60;;
20042;SDS011;10182;52.896;6.496;2023-08-06T01:38:01;12.10;;;10.87;;
20042;SDS011;10182;52.896;6.496;2023-08-06T01:43:04;11.50;;;10.20;;
20042;SDS011;10182;52.896;6.496;2023-08-06T01:48:05;12.97;;;11.77;;
20042;SDS011;10182;52.896;6.496;2023-08-06T01:53:08;13.13;;;11.83;;
20042;SDS011;10182;52.896;6.496;2023-08-06T01:58:10;13.00;;;11.70;;
20042;SDS011;10182;52.896;6.496;2023-08-06T02:03:12;13.73;;;11.77;;
20042;SDS011;10182;52.896;6.496;2023-08-06T02:08:15;12.77;;;11.53;;
20042;SDS011;10182;52.896;6.496;2023-08-06T02:13:18;13.77;;;12.33;;
20042;SDS011;10182;52.896;6.496;2023-08-06T02:18:20;13.83;;;12.30;;
20042;SDS011;10182;52.896;6.496;2023-08-06T02:23:23;14.67;;;13.00;;
20042;SDS011;10182;52.896;6.496;2023-08-06T02:28:25;14.00;;;12.60;;
20042;SDS011;10182;52.896;6.496;2023-08-06T02:33:27;13.73;;;12.23;;
20042;SDS011;10182;52.896;6.496;2023-08-06T02:38:30;13.93;;;12.60;;
20042;SDS011;10182;52.896;6.496;2023-08-06T02:43:31;13.60;;;12.17;;
20042;SDS011;10182;52.896;6.496;2023-08-06T02:48:33;14.83;;;12.07;;
20042;SDS011;10182;52.896;6.496;2023-08-06T02:53:36;13.97;;;12.57;;
20042;SDS011;10182;52.896;6.496;2023-08-06T02:58:38;13.03;;;11.30;;
20042;SDS011;10182;52.896;6.496;2023-08-06T03:03:39;14.67;;;12.90;;
20042;SDS011;10182;52.896;6.496;2023-08-06T03:08:42;14.23;;;12.37;;
20042;SDS011;10182;52.896;6.496;2023-08-06T03:13:44;14.20;;;12.77;;
20042;SDS011;10182;52.896;6.496;2023-08-06T03:18:46;16.83;;;13.27;;
20042;SDS011;10182;52.896;6.496;2023-08-06T03:23:49;15.50;;;13.07;;
20042;SDS011;10182;52.896;6.496;2023-08-06T03:28:50;14.77;;;13.23;;
20042;SDS011;10182;52.896;6.496;2023-08-06T03:33:52;17.27;;;13.57;;
20042;SDS011;10182;52.896;6.496;2023-08-06T03:38:55;15.00;;;13.47;;
20042;SDS011;10182;52.896;6.496;2023-08-06T03:43:57;19.03;;;14.73;;
20042;SDS011;10182;52.896;6.496;2023-08-06T03:48:58;16.83;;;15.13;;
20042;SDS011;10182;52.896;6.496;2023-08-06T03:59:28;19.20;;;15.17;;
20042;SDS011;10182;52.896;6.496;2023-08-06T04:04:29;19.50;;;16.57;;
20042;SDS011;10182;52.896;6.496;2023-08-06T04:09:33;18.97;;;15.77;;
20042;SDS011;10182;52.896;6.496;2023-08-06T04:14:34;19.13;;;16.67;;
20042;SDS011;10182;52.896;6.496;2023-08-06T04:19:36;17.87;;;15.70;;
20042;SDS011;10182;52.896;6.496;2023-08-06T04:24:39;19.13;;;16.77;;
20042;SDS011;10182;52.896;6.496;2023-08-06T04:29:40;19.93;;;17.37;;
20042;SDS011;10182;52.896;6.496;2023-08-06T04:34:42;19.27;;;17.37;;
20042;SDS011;10182;52.896;6.496;2023-08-06T04:39:45;20.50;;;18.33;;
20042;SDS011;10182;52.896;6.496;2023-08-06T04:44:47;19.60;;;17.57;;
20042;SDS011;10182;52.896;6.496;2023-08-06T04:49:49;23.00;;;18.37;;
20042;SDS011;10182;52.896;6.496;2023-08-06T04:54:52;20.50;;;18.30;;
20042;SDS011;10182;52.896;6.496;2023-08-06T04:59:53;20.77;;;17.60;;
20042;SDS011;10182;52.896;6.496;2023-08-06T05:04:55;20.00;;;16.73;;
20042;SDS011;10182;52.896;6.496;2023-08-06T05:09:58;19.90;;;17.80;;
20042;SDS011;10182;52.896;6.496;2023-08-06T05:15:00;18.47;;;16.50;;
20042;SDS011;10182;52.896;6.496;2023-08-06T05:20:02;18.73;;;16.73;;
20042;SDS011;10182;52.896;6.496;2023-08-06T05:25:05;18.77;;;16.83;;
20042;SDS011;10182;52.896;6.496;2023-08-06T05:30:08;19.53;;;17.53;;
20042;SDS011;10182;52.896;6.496;2023-08-06T05:35:10;19.10;;;17.10;;
20042;SDS011;10182;52.896;6.496;2023-08-06T05:40:13;20.73;;;18.53;;
20042;SDS011;10182;52.896;6.496;2023-08-06T05:45:15;18.67;;;16.77;;
20042;SDS011;10182;52.896;6.496;2023-08-06T05:50:17;16.57;;;14.87;;
20042;SDS011;10182;52.896;6.496;2023-08-06T05:55:20;17.43;;;15.73;;
20042;SDS011;10182;52.896;6.496;2023-08-06T06:00:22;16.93;;;15.37;;
20042;SDS011;10182;52.896;6.496;2023-08-06T06:05:24;18.50;;;16.57;;
20042;SDS011;10182;52.896;6.496;2023-08-06T06:10:27;18.80;;;17.00;;
20042;SDS011;10182;52.896;6.496;2023-08-06T06:15:28;16.93;;;15.13;;
20042;SDS011;10182;52.896;6.496;2023-08-06T06:20:31;18.33;;;16.63;;
20042;SDS011;10182;52.896;6.496;2023-08-06T06:25:34;17.60;;;16.00;;
20042;SDS011;10182;52.896;6.496;2023-08-06T06:30:36;17.13;;;15.40;;
20042;SDS011;10182;52.896;6.496;2023-08-06T06:35:38;18.60;;;16.67;;
20042;SDS011;10182;52.896;6.496;2023-08-06T06:40:41;17.67;;;16.03;;
20042;SDS011;10182;52.896;6.496;2023-08-06T06:45:42;15.43;;;14.00;;
20042;SDS011;10182;52.896;6.496;2023-08-06T06:50:46;20.17;;;18.13;;
20042;SDS011;10182;52.896;6.496;2023-08-06T06:55:49;21.07;;;18.27;;
20042;SDS011;10182;52.896;6.496;2023-08-06T07:00:51;19.43;;;17.53;;
20042;SDS011;10182;52.896;6.496;2023-08-06T07:05:56;16.73;;;15.23;;
20042;SDS011;10182;52.896;6.496;2023-08-06T07:11:03;16.73;;;15.07;;
20042;SDS011;10182;52.896;6.496;2023-08-06T07:16:06;17.23;;;15.63;;
20042;SDS011;10182;52.896;6.496;2023-08-06T07:21:07;16.23;;;14.63;;
20042;SDS011;10182;52.896;6.496;2023-08-06T07:26:10;17.00;;;15.30;;
20042;SDS011;10182;52.896;6.496;2023-08-06T07:31:12;17.00;;;15.37;;
20042;SDS011;10182;52.896;6.496;2023-08-06T07:36:14;17.53;;;15.93;;
20042;SDS011;10182;52.896;6.496;2023-08-06T07:41:17;17.00;;;15.50;;
20042;SDS011;10182;52.896;6.496;2023-08-06T07:46:19;15.97;;;14.57;;
20042;SDS011;10182;52.896;6.496;2023-08-06T07:51:21;16.43;;;14.87;;
20042;SDS011;10182;52.896;6.496;2023-08-06T07:56:24;15.37;;;14.00;;
20042;SDS011;10182;52.896;6.496;2023-08-06T08:01:25;13.13;;;12.00;;
20042;SDS011;10182;52.896;6.496;2023-08-06T08:06:27;15.23;;;13.87;;
20042;SDS011;10182;52.896;6.496;2023-08-06T08:11:30;14.90;;;13.50;;
20042;SDS011;10182;52.896;6.496;2023-08-06T08:16:32;13.83;;;12.47;;
20042;SDS011;10182;52.896;6.496;2023-08-06T08:21:33;14.23;;;12.97;;
20042;SDS011;10182;52.896;6.496;2023-08-06T08:26:36;14.47;;;13.17;;
20042;SDS011;10182;52.896;6.496;2023-08-06T08:31:38;13.90;;;12.60;;
20042;SDS011;10182;52.896;6.496;2023-08-06T08:36:40;11.53;;;10.43;;
20042;SDS011;10182;52.896;6.496;2023-08-06T08:41:43;11.10;;;10.03;;
20042;SDS011;10182;52.896;6.496;2023-08-06T08:46:45;12.40;;;11.27;;
20042;SDS011;10182;52.896;6.496;2023-08-06T08:51:49;12.43;;;11.33;;
20042;SDS011;10182;52.896;6.496;2023-08-06T08:56:55;10.63;;;9.63;;
20042;SDS011;10182;52.896;6.496;2023-08-06T09:01:57;11.37;;;10.17;;
20042;SDS011;10182;52.896;6.496;2023-08-06T09:07:01;10.20;;;9.20;;
20042;SDS011;10182;52.896;6.496;2023-08-06T09:12:11;9.97;;;9.07;;
20042;SDS011;10182;52.896;6.496;2023-08-06T09:17:15;10.17;;;9.20;;
20042;SDS011;10182;52.896;6.496;2023-08-06T09:22:19;10.37;;;9.47;;
20042;SDS011;10182;52.896;6.496;2023-08-06T09:27:23;10.60;;;9.37;;
20042;SDS011;10182;52.896;6.496;2023-08-06T09:32:24;10.07;;;9.07;;
20042;SDS011;10182;52.896;6.496;2023-08-06T09:37:27;9.50;;;8.10;;
20042;SDS011;10182;52.896;6.496;2023-08-06T09:42:38;8.90;;;8.10;;
20042;SDS011;10182;52.896;6.496;2023-08-06T09:47:45;9.10;;;8.30;;
20042;SDS011;10182;52.896;6.496;2023-08-06T09:52:47;9.07;;;7.30;;
20042;SDS011;10182;52.896;6.496;2023-08-06T09:57:50;9.00;;;8.10;;
20042;SDS011;10182;52.896;6.496;2023-08-06T10:02:52;7.30;;;6.70;;
20042;SDS011;10182;52.896;6.496;2023-08-06T10:07:56;7.10;;;6.30;;
20042;SDS011;10182;52.896;6.496;2023-08-06T10:13:01;8.33;;;6.40;;
20042;SDS011;10182;52.896;6.496;2023-08-06T10:18:05;7.07;;;6.37;;
20042;SDS011;10182;52.896;6.496;2023-08-06T10:23:08;5.90;;;5.27;;
20042;SDS011;10182;52.896;6.496;2023-08-06T10:28:11;5.50;;;5.00;;
20042;SDS011;10182;52.896;6.496;2023-08-06T10:33:13;5.67;;;5.13;;
20042;SDS011;10182;52.896;6.496;2023-08-06T10:38:17;5.20;;;4.70;;
20042;SDS011;10182;52.896;6.496;2023-08-06T10:43:26;4.77;;;4.27;;
20042;SDS011;10182;52.896;6.496;2023-08-06T10:48:28;4.30;;;3.90;;
20042;SDS011;10182;52.896;6.496;2023-08-06T10:53:31;3.60;;;3.30;;
20042;SDS011;10182;52.896;6.496;2023-08-06T10:58:35;3.90;;;2.97;;
20042;SDS011;10182;52.896;6.496;2023-08-06T11:03:36;3.00;;;2.63;;
20042;SDS011;10182;52.896;6.496;2023-08-06T11:08:40;3.27;;;2.70;;
20042;SDS011;10182;52.896;6.496;2023-08-06T11:13:51;4.20;;;2.83;;
20042;SDS011;10182;52.896;6.496;2023-08-06T11:18:53;4.40;;;2.70;;
20042;SDS011;10182;52.896;6.496;2023-08-06T11:23:56;2.47;;;2.27;;
20042;SDS011;10182;52.896;6.496;2023-08-06T11:28:59;2.83;;;2.23;;
20042;SDS011;10182;52.896;6.496;2023-08-06T11:34:01;2.60;;;2.20;;
20042;SDS011;10182;52.896;6.496;2023-08-06T11:39:03;2.57;;;2.37;;
20042;SDS011;10182;52.896;6.496;2023-08-06T11:44:07;2.67;;;1.90;;
20042;SDS011;10182;52.896;6.496;2023-08-06T11:49:13;2.37;;;1.90;;
20042;SDS011;10182;52.896;6.496;2023-08-06T11:54:15;3.67;;;2.40;;
20042;SDS011;10182;52.896;6.496;2023-08-06T11:59:18;2.73;;;2.10;;
20042;SDS011;10182;52.896;6.496;2023-08-06T12:04:22;3.03;;;2.20;;
20042;SDS011;10182;52.896;6.496;2023-08-06T12:09:24;1.97;;;1.80;;
20042;SDS011;10182;52.896;6.496;2023-08-06T12:14:28;2.27;;;2.00;;
20042;SDS011;10182;52.896;6.496;2023-08-06T12:19:30;2.17;;;1.97;;
20042;SDS011;10182;52.896;6.496;2023-08-06T12:24:32;4.73;;;2.10;;
20042;SDS011;10182;52.896;6.496;2023-08-06T12:29:35;3.30;;;1.67;;
20042;SDS011;10182;52.896;6.496;2023-08-06T12:34:38;3.57;;;1.87;;
20042;SDS011;10182;52.896;6.496;2023-08-06T12:39:40;2.27;;;2.07;;
20042;SDS011;10182;52.896;6.496;2023-08-06T12:44:43;2.97;;;2.10;;
20042;SDS011;10182;52.896;6.496;2023-08-06T12:49:45;3.50;;;1.90;;
20042;SDS011;10182;52.896;6.496;2023-08-06T12:54:47;2.40;;;2.17;;
20042;SDS011;10182;52.896;6.496;2023-08-06T12:59:50;4.60;;;2.10;;
20042;SDS011;10182;52.896;6.496;2023-08-06T13:04:52;2.50;;;2.13;;
20042;SDS011;10182;52.896;6.496;2023-08-06T13:09:53;2.53;;;2.33;;
20042;SDS011;10182;52.896;6.496;2023-08-06T13:14:56;2.33;;;2.10;;
20042;SDS011;10182;52.896;6.496;2023-08-06T13:19:59;2.90;;;2.17;;
20042;SDS011;10182;52.896;6.496;2023-08-06T13:25:01;2.93;;;2.00;;
20042;SDS011;10182;52.896;6.496;2023-08-06T13:30:04;2.47;;;1.83;;
20042;SDS011;10182;52.896;6.496;2023-08-06T13:35:07;2.53;;;2.20;;
20042;SDS011;10182;52.896;6.496;2023-08-06T13:40:09;2.77;;;2.13;;
20042;SDS011;10182;52.896;6.496;2023-08-06T13:45:13;2.70;;;2.40;;
20042;SDS011;10182;52.896;6.496;2023-08-06T13:50:15;3.23;;;2.40;;
20042;SDS011;10182;52.896;6.496;2023-08-06T13:55:17;2.47;;;2.27;;
20042;SDS011;10182;52.896;6.496;2023-08-06T14:00:20;3.17;;;2.00;;
20042;SDS011;10182;52.896;6.496;2023-08-06T14:05:22;2.67;;;2.07;;
20042;SDS011;10182;52.896;6.496;2023-08-06T14:10:24;3.03;;;2.00;;
20042;SDS011;10182;52.896;6.496;2023-08-06T14:15:27;5.10;;;2.30;;
20042;SDS011;10182;52.896;6.496;2023-08-06T14:20:29;2.20;;;1.83;;
20042;SDS011;10182;52.896;6.496;2023-08-06T14:25:31;3.73;;;2.00;;
20042;SDS011;10182;52.896;6.496;2023-08-06T14:30:34;2.67;;;2.30;;
20042;SDS011;10182;52.896;6.496;2023-08-06T14:35:36;2.37;;;2.17;;
20042;SDS011;10182;52.896;6.496;2023-08-06T14:40:37;3.07;;;1.93;;
20042;SDS011;10182;52.896;6.496;2023-08-06T14:45:41;2.70;;;1.90;;
20042;SDS011;10182;52.896;6.496;2023-08-06T14:50:43;1.83;;;1.73;;
20042;SDS011;10182;52.896;6.496;2023-08-06T14:55:45;3.67;;;1.97;;
20042;SDS011;10182;52.896;6.496;2023-08-06T15:00:48;3.00;;;2.30;;
20042;SDS011;10182;52.896;6.496;2023-08-06T15:05:50;2.40;;;1.80;;
20042;SDS011;10182;52.896;6.496;2023-08-06T15:10:51;2.20;;;2.00;;
20042;SDS011;10182;52.896;6.496;2023-08-06T15:15:55;2.50;;;2.20;;
20042;SDS011;10182;52.896;6.496;2023-08-06T15:20:56;3.07;;;2.10;;
20042;SDS011;10182;52.896;6.496;2023-08-06T15:25:58;2.23;;;2.03;;
20042;SDS011;10182;52.896;6.496;2023-08-06T15:31:01;2.23;;;2.03;;
20042;SDS011;10182;52.896;6.496;2023-08-06T15:36:06;2.30;;;1.90;;
20042;SDS011;10182;52.896;6.496;2023-08-06T15:41:07;2.20;;;2.00;;
20042;SDS011;10182;52.896;6.496;2023-08-06T15:46:10;2.53;;;2.00;;
20042;SDS011;10182;52.896;6.496;2023-08-06T15:51:12;3.57;;;2.40;;
20042;SDS011;10182;52.896;6.496;2023-08-06T15:56:14;3.07;;;2.10;;
20042;SDS011;10182;52.896;6.496;2023-08-06T16:01:17;2.40;;;2.20;;
20042;SDS011;10182;52.896;6.496;2023-08-06T16:06:18;2.80;;;2.30;;
20042;SDS011;10182;52.896;6.496;2023-08-06T16:11:20;1.97;;;1.77;;
20042;SDS011;10182;52.896;6.496;2023-08-06T16:16:23;2.67;;;2.40;;
20042;SDS011;10182;52.896;6.496;2023-08-06T16:21:25;3.00;;;2.80;;
20042;SDS011;10182;52.896;6.496;2023-08-06T16:26:27;2.77;;;2.57;;
20042;SDS011;10182;52.896;6.496;2023-08-06T16:31:30;5.67;;;2.70;;
20042;SDS011;10182;52.896;6.496;2023-08-06T16:36:31;3.80;;;2.27;;
20042;SDS011;10182;52.896;6.496;2023-08-06T16:41:33;3.53;;;2.97;;
20042;SDS011;10182;52.896;6.496;2023-08-06T16:46:36;3.00;;;2.77;;
20042;SDS011;10182;52.896;6.496;2023-08-06T16:51:38;3.37;;;3.07;;
20042;SDS011;10182;52.896;6.496;2023-08-06T16:56:40;3.50;;;2.97;;
20042;SDS011;10182;52.896;6.496;2023-08-06T17:01:43;5.00;;;3.73;;
20042;SDS011;10182;52.896;6.496;2023-08-06T17:06:44;4.37;;;3.60;;
20042;SDS011;10182;52.896;6.496;2023-08-06T17:11:47;6.23;;;4.00;;
20042;SDS011;10182;52.896;6.496;2023-08-06T17:16:50;5.97;;;4.10;;
20042;SDS011;10182;52.896;6.496;2023-08-06T17:21:52;5.20;;;3.80;;
20042;SDS011;10182;52.896;6.496;2023-08-06T17:26:54;3.77;;;3.20;;
20042;SDS011;10182;52.896;6.496;2023-08-06T17:32:00;4.37;;;3.30;;
20042;SDS011;10182;52.896;6.496;2023-08-06T17:37:01;3.87;;;3.47;;
20042;SDS011;10182;52.896;6.496;2023-08-06T17:42:06;4.67;;;3.33;;
20042;SDS011;10182;52.896;6.496;2023-08-06T17:47:12;5.83;;;3.03;;
20042;SDS011;10182;52.896;6.496;2023-08-06T17:52:13;5.83;;;2.87;;
20042;SDS011;10182;52.896;6.496;2023-08-06T17:57:16;5.43;;;2.90;;
20042;SDS011;10182;52.896;6.496;2023-08-06T18:02:19;5.33;;;2.73;;
20042;SDS011;10182;52.896;6.496;2023-08-06T18:07:21;9.13;;;2.60;;
20042;SDS011;10182;52.896;6.496;2023-08-06T18:12:23;5.83;;;2.37;;
20042;SDS011;10182;52.896;6.496;2023-08-06T18:17:26;4.87;;;2.60;;
20042;SDS011;10182;52.896;6.496;2023-08-06T18:22:27;9.03;;;2.53;;
20042;SDS011;10182;52.896;6.496;2023-08-06T18:27:29;5.47;;;2.03;;
20042;SDS011;10182;52.896;6.496;2023-08-06T18:32:32;6.33;;;1.73;;
20042;SDS011;10182;52.896;6.496;2023-08-06T18:37:34;6.10;;;1.90;;
20042;SDS011;10182;52.896;6.496;2023-08-06T18:42:37;5.23;;;2.20;;
20042;SDS011;10182;52.896;6.496;2023-08-06T18:47:40;6.60;;;2.20;;
20042;SDS011;10182;52.896;6.496;2023-08-06T18:52:42;8.13;;;2.70;;
20042;SDS011;10182;52.896;6.496;2023-08-06T18:57:43;9.33;;;2.43;;
20042;SDS011;10182;52.896;6.496;2023-08-06T19:02:46;8.70;;;2.13;;
20042;SDS011;10182;52.896;6.496;2023-08-06T19:07:48;6.77;;;2.20;;
20042;SDS011;10182;52.896;6.496;2023-08-06T19:12:50;12.73;;;2.77;;
20042;SDS011;10182;52.896;6.496;2023-08-06T19:17:53;4.73;;;2.23;;
20042;SDS011;10182;52.896;6.496;2023-08-06T19:22:55;9.53;;;2.07;;
20042;SDS011;10182;52.896;6.496;2023-08-06T19:27:57;9.70;;;2.13;;
20042;SDS011;10182;52.896;6.496;2023-08-06T19:33:00;9.13;;;2.03;;
20042;SDS011;10182;52.896;6.496;2023-08-06T19:38:02;10.50;;;2.33;;
20042;SDS011;10182;52.896;6.496;2023-08-06T19:43:03;10.37;;;2.57;;
20042;SDS011;10182;52.896;6.496;2023-08-06T19:48:06;8.03;;;2.37;;
20042;SDS011;10182;52.896;6.496;2023-08-06T19:53:08;8.63;;;2.00;;
20042;SDS011;10182;52.896;6.496;2023-08-06T19:58:10;8.67;;;2.27;;
20042;SDS011;10182;52.896;6.496;2023-08-06T20:03:13;7.97;;;2.57;;
20042;SDS011;10182;52.896;6.496;2023-08-06T20:08:15;9.70;;;2.77;;
20042;SDS011;10182;52.896;6.496;2023-08-06T20:13:16;9.23;;;2.27;;
20042;SDS011;10182;52.896;6.496;2023-08-06T20:18:19;7.53;;;2.20;;
20042;SDS011;10182;52.896;6.496;2023-08-06T20:23:23;8.47;;;2.07;;
20042;SDS011;10182;52.896;6.496;2023-08-06T20:28:25;6.33;;;2.33;;
20042;SDS011;10182;52.896;6.496;2023-08-06T20:33:28;11.27;;;2.80;;
20042;SDS011;10182;52.896;6.496;2023-08-06T20:38:30;6.87;;;3.13;;
20042;SDS011;10182;52.896;6.496;2023-08-06T20:43:34;6.37;;;3.20;;
20042;SDS011;10182;52.896;6.496;2023-08-06T20:48:38;8.90;;;3.43;;
20042;SDS011;10182;52.896;6.496;2023-08-06T20:53:39;7.73;;;2.80;;
20042;SDS011;10182;52.896;6.496;2023-08-06T20:58:41;9.23;;;3.33;;
20042;SDS011;10182;52.896;6.496;2023-08-06T21:03:44;7.67;;;3.00;;
20042;SDS011;10182;52.896;6.496;2023-08-06T21:08:46;6.00;;;2.67;;
20042;SDS011;10182;52.896;6.496;2023-08-06T21:13:48;8.87;;;3.23;;
20042;SDS011;10182;52.896;6.496;2023-08-06T21:18:51;10.00;;;3.23;;
20042;SDS011;10182;52.896;6.496;2023-08-06T21:23:53;11.10;;;3.50;;
20042;SDS011;10182;52.896;6.496;2023-08-06T21:28:55;9.70;;;3.17;;
20042;SDS011;10182;52.896;6.496;2023-08-06T21:33:58;7.43;;;3.50;;
20042;SDS011;10182;52.896;6.496;2023-08-06T21:38:59;5.17;;;3.40;;
20042;SDS011;10182;52.896;6.496;2023-08-06T21:44:01;8.00;;;3.50;;
20042;SDS011;10182;52.896;6.496;2023-08-06T21:49:04;8.90;;;3.80;;
20042;SDS011;10182;52.896;6.496;2023-08-06T21:54:06;11.50;;;4.13;;
20042;SDS011;10182;52.896;6.496;2023-08-06T21:59:13;5.50;;;3.33;;
20042;SDS011;10182;52.896;6.496;2023-08-06T22:04:16;9.53;;;3.47;;
20042;SDS011;10182;52.896;6.496;2023-08-06T22:09:17;7.07;;;3.60;;
20042;SDS011;10182;52.896;6.496;2023-08-06T22:14:19;8.90;;;4.00;;
20042;SDS011;10182;52.896;6.496;2023-08-06T22:19:22;11.67;;;4.83;;
20042;SDS011;10182;52.896;6.496;2023-08-06T22:24:24;7.37;;;4.40;;
20042;SDS011;10182;52.896;6.496;2023-08-06T22:29:25;7.47;;;4.10;;
20042;SDS011;10182;52.896;6.496;2023-08-06T22:34:29;6.73;;;5.10;;
20042;SDS011;10182;52.896;6.496;2023-08-06T22:39:30;10.10;;;5.63;;
20042;SDS011;10182;52.896;6.496;2023-08-06T22:44:32;12.40;;;6.97;;
20042;SDS011;10182;52.896;6.496;2023-08-06T22:49:35;11.27;;;7.70;;
20042;SDS011;10182;52.896;6.496;2023-08-06T22:54:38;9.80;;;8.47;;
20042;SDS011;10182;52.896;6.496;2023-08-06T22:59:40;11.37;;;9.50;;
20042;SDS011;10182;52.896;6.496;2023-08-06T23:04:43;15.93;;;10.73;;
20042;SDS011;10182;52.896;6.496;2023-08-06T23:09:44;12.47;;;10.73;;
20042;SDS011;10182;52.896;6.496;2023-08-06T23:14:46;11.30;;;10.13;;
20042;SDS011;10182;52.896;6.496;2023-08-06T23:19:49;11.27;;;10.13;;
20042;SDS011;10182;52.896;6.496;2023-08-06T23:24:51;11.47;;;9.73;;
20042;SDS011;10182;52.896;6.496;2023-08-06T23:29:52;13.10;;;10.03;;
20042;SDS011;10182;52.896;6.496;2023-08-06T23:34:55;11.23;;;10.07;;
20042;SDS011;10182;52.896;6.496;2023-08-06T23:39:57;12.07;;;9.77;;
20042;SDS011;10182;52.896;6.496;2023-08-06T23:44:59;9.80;;;8.53;;
20042;SDS011;10182;52.896;6.496;2023-08-06T23:50:02;11.80;;;10.37;;
20042;SDS011;10182;52.896;6.496;2023-08-06T23:55:04;11.60;;;9.30;;
